KBML/BML METAR and TAF weather

Enter ICAO airport designator
Station Type Date Time Source
KBML METAR 2020/09/27 00:52 UTC NOAA

KBML 270052Z AUTO VRB03KT 10SM CLR 17/11 A3003 RMK AO2 SLP172 T01720106


Station Type Date Time Source
KBML Decoded METAR 2020/09/27 00:52 UTC NOAA

BERLIN MUNICIPAL AIRPORT, NH, United States (KBML) 44-35N 71-11W 345M
Sep 26, 2020 - 08:52 PM EDT / 2020.09.27 0052 UTC
Wind: Variable at 3 MPH (3 KT):0
Visibility: 10 mile(s):0
Sky conditions: clear
Temperature: 63.0 F (17.2 C)
Dew Point: 51.1 F (10.6 C)
Relative Humidity: 65%
Pressure (altimeter): 30.03 in. Hg (1016 hPa)
ob: KBML 270052Z AUTO VRB03KT 10SM CLR 17/11 A3003 RMK AO2 SLP172 T01720106
cycle: 1

Station Type Date Time Source
KBML TAF UTC NOAA

Error!

Example: see airport list